^^
Your Local Weather - Clay, NY Station Historical Data
Daily Summary for November 9, 2017 Units:  English    Metric   Both
« Previous Day
Next Day »
Daily Weekly Monthly Yearly Custom
  High: Low: Average:
Temperature: 49.3 °F 25.0 °F 38 °F
Dew Point: 37.7 °F 22.5 °F 30.7 °F
Humidity: 91% 55% 76%
Wind Speed: 7.0mph 0.0mph 2.8mph
Wind Gust: 14.0mph - -
Wind- - SSW
Pressure: 30.19 in 29.81 in -
Precipitation: 0.08 in    
Historical Graphs
 
 
Tabular Data for November 9, 2017
Time Temperature Dew Point Pressure Wind Wind Speed Wind Gust Humidity Rainfall Rate (Hourly) solar
00:00 27.2 °F 24.4 °F 30.19 in Calm     89% 0.00 in 0 W/m2
00:06 27.2 °F 24.4 °F 30.19 in Calm     89% 0.00 in 0 W/m2
00:12 27.3 °F 24.5 °F 30.19 in Calm     89% 0.00 in 0 W/m2
00:18 27.3 °F 24.8 °F 30.19 in Calm     90% 0.00 in 0 W/m2
00:24 27.2 °F 24.7 °F 30.19 in Calm     90% 0.00 in 0 W/m2
00:30 27.0 °F 24.5 °F 30.19 in Calm     90% 0.00 in 0 W/m2
00:36 26.8 °F 24.3 °F 30.19 in Calm     90% 0.00 in 0 W/m2
00:42 26.7 °F 24.2 °F 30.19 in Calm     90% 0.00 in 0 W/m2
00:48 26.6 °F 24.1 °F 30.19 in Calm     90% 0.00 in 0 W/m2
00:54 26.4 °F 23.9 °F 30.19 in Calm     90% 0.00 in 0 W/m2
01:00 26.3 °F 23.8 °F 30.19 in Calm     90% 0.00 in 0 W/m2
01:06 26.1 °F 23.6 °F 30.19 in Calm     90% 0.00 in 0 W/m2
01:12 26.0 °F 23.5 °F 30.19 in Calm     90% 0.00 in 0 W/m2
01:18 26.0 °F 23.5 °F 30.19 in Calm     90% 0.00 in 0 W/m2
01:24 25.9 °F 23.4 °F 30.19 in Calm     90% 0.00 in 0 W/m2
01:30 25.8 °F 23.3 °F 30.19 in Calm     90% 0.00 in 0 W/m2
01:36 25.8 °F 23.3 °F 30.19 in Calm     90% 0.00 in 0 W/m2
01:42 25.7 °F 23.2 °F 30.19 in Calm     90% 0.00 in 0 W/m2
01:48 25.8 °F 23.3 °F 30.19 in Calm   1.0 mph 90% 0.00 in 0 W/m2
01:54 25.8 °F 23.3 °F 30.19 in Calm     90% 0.00 in 0 W/m2
02:00 25.8 °F 23.3 °F 30.19 in Calm     90% 0.00 in 0 W/m2
02:06 25.8 °F 23.3 °F 30.19 in Calm     90% 0.00 in 0 W/m2
02:12 26.0 °F 23.5 °F 30.19 in Calm     90% 0.00 in 0 W/m2
02:18 26.6 °F 24.3 °F 30.19 in South 1.0 mph 3.0 mph 91% 0.00 in 0 W/m2
02:24 26.7 °F 24.2 °F 30.18 in South 1.0 mph 1.0 mph 90% 0.00 in 0 W/m2
02:30 26.8 °F 24.3 °F 30.18 in South 1.0 mph 1.0 mph 90% 0.00 in 0 W/m2
02:36 27.0 °F 24.5 °F 30.18 in Calm   1.0 mph 90% 0.00 in 0 W/m2
02:42 27.0 °F 24.2 °F 30.18 in Calm     89% 0.00 in 0 W/m2
02:48 26.9 °F 24.1 °F 30.18 in Calm     89% 0.00 in 0 W/m2
02:54 26.9 °F 24.1 °F 30.18 in Calm     89% 0.00 in 0 W/m2
03:00 26.7 °F 23.6 °F 30.18 in Calm     88% 0.00 in 0 W/m2
03:06 26.5 °F 23.4 °F 30.18 in Calm     88% 0.00 in 0 W/m2
03:12 26.3 °F 23.2 °F 30.18 in Calm     88% 0.00 in 0 W/m2
03:18 26.2 °F 23.4 °F 30.18 in Calm     89% 0.00 in 0 W/m2
03:26 26.0 °F 23.2 °F 30.18 in Calm     89% 0.00 in 0 W/m2
03:32 25.8 °F 23.0 °F 30.18 in Calm     89% 0.00 in 0 W/m2
03:38 25.7 °F 22.9 °F 30.18 in Calm     89% 0.00 in 0 W/m2
03:44 25.7 °F 22.9 °F 30.18 in Calm     89% 0.00 in 0 W/m2
03:50 25.7 °F 23.2 °F 30.18 in Calm     90% 0.00 in 0 W/m2
03:56 25.8 °F 23.3 °F 30.18 in Calm     90% 0.00 in 0 W/m2
04:02 25.8 °F 23.3 °F 30.18 in Calm     90% 0.00 in 0 W/m2
04:08 25.9 °F 23.4 °F 30.18 in Calm     90% 0.00 in 0 W/m2
04:14 25.8 °F 23.3 °F 30.18 in Calm     90% 0.00 in 0 W/m2
04:20 25.7 °F 23.2 °F 30.18 in Calm     90% 0.00 in 0 W/m2
04:26 25.5 °F 23.0 °F 30.18 in Calm     90% 0.00 in 0 W/m2
04:32 25.6 °F 23.1 °F 30.18 in Calm     90% 0.00 in 0 W/m2
04:38 25.6 °F 23.1 °F 30.17 in Calm     90% 0.00 in 0 W/m2
04:44 25.6 °F 23.1 °F 30.17 in Calm     90% 0.00 in 0 W/m2
04:50 25.6 °F 23.1 °F 30.17 in Calm     90% 0.00 in 0 W/m2
04:56 25.5 °F 23.0 °F 30.16 in Calm     90% 0.00 in 0 W/m2
05:02 25.4 °F 22.9 °F 30.16 in Calm     90% 0.00 in 0 W/m2
05:08 25.4 °F 22.9 °F 30.16 in Calm     90% 0.00 in 0 W/m2
05:14 25.5 °F 23.0 °F 30.16 in Calm     90% 0.00 in 0 W/m2
05:20 25.6 °F 23.1 °F 30.15 in Calm     90% 0.00 in 0 W/m2
05:26 25.6 °F 23.1 °F 30.15 in Calm     90% 0.00 in 0 W/m2
05:32 25.5 °F 23.0 °F 30.16 in Calm     90% 0.00 in 0 W/m2
05:38 25.7 °F 23.2 °F 30.16 in Calm     90% 0.00 in 0 W/m2
05:44 25.7 °F 23.2 °F 30.15 in Calm     90% 0.00 in 0 W/m2
05:50 26.0 °F 23.5 °F 30.15 in Calm     90% 0.00 in 0 W/m2
05:56 25.8 °F 23.3 °F 30.15 in Calm     90% 0.00 in 0 W/m2
06:02 25.8 °F 23.3 °F 30.15 in Calm   1.0 mph 90% 0.00 in 0 W/m2
06:08 25.6 °F 23.1 °F 30.15 in Calm   1.0 mph 90% 0.00 in 0 W/m2
06:14 25.5 °F 23.0 °F 30.15 in Calm     90% 0.00 in 0 W/m2
06:20 25.5 °F 23.0 °F 30.15 in Calm     90% 0.00 in 0 W/m2
06:26 25.4 °F 22.9 °F 30.15 in Calm     90% 0.00 in 0 W/m2
06:32 25.3 °F 22.8 °F 30.15 in Calm     90% 0.00 in 0 W/m2
06:38 25.1 °F 22.6 °F 30.15 in Calm     90% 0.00 in 0 W/m2
06:44 25.1 °F 22.6 °F 30.15 in Calm     90% 0.00 in 5 W/m2
06:52 25.0 °F 22.5 °F 30.14 in Calm     90% 0.00 in 7 W/m2
06:58 25.0 °F 22.5 °F 30.14 in Calm     90% 0.00 in 9 W/m2
07:04 25.0 °F 22.5 °F 30.15 in Calm     90% 0.00 in 12 W/m2
07:10 25.0 °F 22.5 °F 30.14 in Calm     90% 0.00 in 16 W/m2
07:16 25.2 °F 22.7 °F 30.13 in Calm     90% 0.00 in 21 W/m2
07:22 25.4 °F 22.9 °F 30.14 in Calm     90% 0.00 in 32 W/m2
07:28 25.8 °F 23.3 °F 30.14 in Calm     90% 0.00 in 44 W/m2
07:34 26.5 °F 24.2 °F 30.14 in Calm     91% 0.00 in 53 W/m2
07:40 27.2 °F 24.9 °F 30.14 in Calm     91% 0.00 in 72 W/m2
07:46 27.9 °F 25.3 °F 30.14 in Calm     90% 0.00 in 90 W/m2
07:52 28.7 °F 26.1 °F 30.14 in Calm   1.0 mph 90% 0.00 in 100 W/m2
07:58 29.3 °F 26.5 °F 30.14 in Calm   1.0 mph 89% 0.00 in 123 W/m2
08:04 30.3 °F 27.4 °F 30.13 in Calm   1.0 mph 89% 0.00 in 195 W/m2
08:10 31.5 °F 28.1 °F 30.13 in Calm     87% 0.00 in 220 W/m2
08:16 32.7 °F 28.4 °F 30.13 in Calm     84% 0.00 in 251 W/m2
08:22 34.3 °F 28.2 °F 30.13 in Calm   1.0 mph 78% 0.00 in 246 W/m2
08:28 34.9 °F 27.8 °F 30.13 in SSE 1.0 mph 2.0 mph 75% 0.00 in 241 W/m2
08:34 35.4 °F 27.9 °F 30.13 in SSE 1.0 mph 1.0 mph 74% 0.00 in 156 W/m2
08:40 35.3 °F 27.8 °F 30.13 in SSE 1.0 mph 1.0 mph 74% 0.00 in 127 W/m2
08:46 35.3 °F 27.8 °F 30.13 in Calm   1.0 mph 74% 0.00 in 179 W/m2
08:52 35.9 °F 28.1 °F 30.13 in Calm   2.0 mph 73% 0.00 in 248 W/m2
08:58 37.1 °F 29.6 °F 30.12 in SSE 1.0 mph 2.0 mph 74% 0.00 in 244 W/m2
09:04 37.4 °F 28.5 °F 30.12 in SSE 1.0 mph 2.0 mph 70% 0.00 in 257 W/m2
09:10 37.7 °F 28.8 °F 30.12 in SSE 1.0 mph 1.0 mph 70% 0.00 in 232 W/m2
09:16 38.4 °F 28.8 °F 30.12 in SSE 1.0 mph 2.0 mph 68% 0.00 in 264 W/m2
09:22 39.2 °F 29.5 °F 30.11 in SSE 1.0 mph 1.0 mph 68% 0.00 in 322 W/m2
09:28 40.1 °F 30.7 °F 30.11 in SSE 1.0 mph 2.0 mph 69% 0.00 in 366 W/m2
09:34 41.1 °F 30.2 °F 30.10 in SSE 1.0 mph 3.0 mph 65% 0.00 in 396 W/m2
09:40 41.8 °F 30.1 °F 30.10 in SE 2.0 mph 2.0 mph 63% 0.00 in 417 W/m2
09:46 43.2 °F 31.1 °F 30.10 in SW 2.0 mph 3.0 mph 62% 0.00 in 373 W/m2
09:52 43.6 °F 29.8 °F 30.10 in SW 2.0 mph 5.0 mph 58% 0.00 in 278 W/m2
09:58 43.9 °F 30.5 °F 30.10 in SSW 2.0 mph 5.0 mph 59% 0.00 in 241 W/m2
10:04 44.0 °F 30.2 °F 30.09 in South 2.0 mph 3.0 mph 58% 0.00 in 330 W/m2
10:10 44.6 °F 30.7 °F 30.09 in SSE 2.0 mph 2.0 mph 58% 0.00 in 236 W/m2
10:16 44.3 °F 30.0 °F 30.09 in SSW 3.0 mph 3.0 mph 57% 0.00 in 257 W/m2
10:22 45.0 °F 31.9 °F 30.09 in SSW 4.0 mph 7.0 mph 60% 0.00 in 429 W/m2
10:28 44.9 °F 31.0 °F 30.09 in SSW 5.0 mph 7.0 mph 58% 0.00 in 343 W/m2
10:34 44.7 °F 32.1 °F 30.09 in South 6.0 mph 6.0 mph 61% 0.00 in 304 W/m2
10:40 44.9 °F 32.3 °F 30.08 in SSW 6.0 mph 6.0 mph 61% 0.00 in 390 W/m2
10:46 45.6 °F 33.7 °F 30.08 in South 3.0 mph 6.0 mph 63% 0.00 in 404 W/m2
10:52 45.7 °F 32.6 °F 30.08 in SSW 4.0 mph 7.0 mph 60% 0.00 in 278 W/m2
10:58 45.8 °F 32.7 °F 30.07 in SSW 5.0 mph 8.0 mph 60% 0.00 in 306 W/m2
11:04 45.4 °F 32.7 °F 30.07 in South 5.0 mph 6.0 mph 61% 0.00 in 285 W/m2
11:10 45.8 °F 33.1 °F 30.06 in SSW 4.0 mph 5.0 mph 61% 0.00 in 318 W/m2
11:16 45.9 °F 33.2 °F 30.05 in SW 4.0 mph 5.0 mph 61% 0.00 in 353 W/m2
11:22 46.1 °F 33.4 °F 30.05 in South 4.0 mph 6.0 mph 61% 0.00 in 253 W/m2
11:28 45.9 °F 33.6 °F 30.04 in SW 4.0 mph 8.0 mph 62% 0.00 in 304 W/m2
11:34 46.2 °F 33.1 °F 30.04 in South 4.0 mph 5.0 mph 60% 0.00 in 330 W/m2
11:40 46.4 °F 33.3 °F 30.04 in SSW 4.0 mph 4.0 mph 60% 0.00 in 251 W/m2
11:46 45.9 °F 33.2 °F 30.03 in SW 5.0 mph 7.0 mph 61% 0.00 in 230 W/m2
11:52 45.7 °F 33.4 °F 30.02 in SSW 5.0 mph 5.0 mph 62% 0.00 in 218 W/m2
11:58 45.7 °F 33.8 °F 30.02 in SSE 6.0 mph 12.0 mph 63% 0.00 in 221 W/m2
12:04 45.9 °F 34.0 °F 30.01 in SSW 5.0 mph 6.0 mph 63% 0.00 in 251 W/m2
12:10 46.3 °F 34.4 °F 30.01 in SW 4.0 mph 4.0 mph 63% 0.00 in 295 W/m2
12:16 46.7 °F 34.4 °F 30.00 in SSW 4.0 mph 5.0 mph 62% 0.00 in 308 W/m2
12:22 46.9 °F 34.6 °F 30.00 in SSE 4.0 mph 6.0 mph 62% 0.00 in 290 W/m2
12:28 47.0 °F 34.6 °F 29.99 in SW 4.0 mph 6.0 mph 62% 0.00 in 299 W/m2
12:34 47.3 °F 34.1 °F 29.99 in SW 4.0 mph 9.0 mph 60% 0.00 in 306 W/m2
12:40 47.3 °F 34.5 °F 29.98 in SW 5.0 mph 5.0 mph 61% 0.00 in 343 W/m2
12:46 47.4 °F 34.2 °F 29.98 in SW 6.0 mph 6.0 mph 60% 0.00 in 364 W/m2
12:52 48.0 °F 34.8 °F 29.98 in South 6.0 mph 12.0 mph 60% 0.00 in 573 W/m2
12:58 48.4 °F 34.7 °F 29.97 in SSW 7.0 mph 14.0 mph 59% 0.00 in 573 W/m2
13:04 49.3 °F 34.7 °F 29.97 in WSW 6.0 mph 12.0 mph 57% 0.00 in 464 W/m2
13:10 48.9 °F 35.2 °F 29.97 in SW 4.0 mph 4.0 mph 59% 0.00 in 195 W/m2
13:16 48.4 °F 35.6 °F 29.97 in SSW 4.0 mph 5.0 mph 61% 0.00 in 399 W/m2
13:22 48.4 °F 34.3 °F 29.97 in SSW 5.0 mph 5.0 mph 58% 0.00 in 218 W/m2
13:28 48.2 °F 35.0 °F 29.96 in SSE 5.0 mph 10.0 mph 60% 0.00 in 431 W/m2
13:34 48.3 °F 35.0 °F 29.96 in SSE 5.0 mph 7.0 mph 60% 0.00 in 543 W/m2
13:40 48.6 °F 35.3 °F 29.96 in SSW 5.0 mph 5.0 mph 60% 0.00 in 366 W/m2
13:46 48.1 °F 34.4 °F 29.95 in WSW 5.0 mph 9.0 mph 59% 0.00 in 258 W/m2
13:52 47.3 °F 34.5 °F 29.95 in South 6.0 mph 8.0 mph 61% 0.00 in 230 W/m2
13:58 46.8 °F 34.5 °F 29.95 in SSW 6.0 mph 8.0 mph 62% 0.00 in 167 W/m2
14:04 47.1 °F 34.7 °F 29.95 in South 5.0 mph 8.0 mph 62% 0.00 in 265 W/m2
14:10 47.5 °F 34.3 °F 29.94 in South 5.0 mph 5.0 mph 60% 0.00 in 86 W/m2
14:16 48.1 °F 36.1 °F 29.94 in SSW 5.0 mph 5.0 mph 63% 0.00 in 476 W/m2
14:22 48.8 °F 35.1 °F 29.94 in SW 5.0 mph 10.0 mph 59% 0.00 in 371 W/m2
14:28 48.9 °F 34.3 °F 29.93 in South 5.0 mph 10.0 mph 57% 0.00 in 348 W/m2
14:34 47.9 °F 32.5 °F 29.93 in SSW 5.0 mph 10.0 mph 55% 0.00 in 229 W/m2
14:40 47.6 °F 33.5 °F 29.93 in SSW 6.0 mph 6.0 mph 58% 0.00 in 336 W/m2
14:46 48.2 °F 34.5 °F 29.93 in WSW 4.0 mph 6.0 mph 59% 0.00 in 352 W/m2
14:52 48.4 °F 34.7 °F 29.92 in South 5.0 mph 5.0 mph 59% 0.00 in 334 W/m2
14:58 48.3 °F 35.0 °F 29.92 in SSW 5.0 mph 9.0 mph 60% 0.00 in 278 W/m2
15:04 48.4 °F 35.1 °F 29.91 in South 5.0 mph 8.0 mph 60% 0.00 in 297 W/m2
15:10 48.2 °F 35.4 °F 29.91 in SE 5.0 mph 5.0 mph 61% 0.00 in 250 W/m2
15:16 47.9 °F 35.5 °F 29.91 in SE 4.0 mph 6.0 mph 62% 0.00 in 244 W/m2
15:24 47.8 °F 35.4 °F 29.91 in SSE 5.0 mph 7.0 mph 62% 0.00 in 214 W/m2
15:30 48.3 °F 34.6 °F 29.90 in SSW 5.0 mph 5.0 mph 59% 0.00 in 111 W/m2
15:36 48.5 °F 34.8 °F 29.90 in SSW 3.0 mph 5.0 mph 59% 0.00 in 128 W/m2
15:42 48.1 °F 34.9 °F 29.90 in South 3.0 mph 5.0 mph 60% 0.00 in 35 W/m2
15:48 47.3 °F 34.9 °F 29.89 in SSW 5.0 mph 5.0 mph 62% 0.00 in 32 W/m2
15:54 46.9 °F 35.0 °F 29.89 in SSW 5.0 mph 6.0 mph 63% 0.00 in 35 W/m2
16:00 46.7 °F 35.2 °F 29.89 in SSW 4.0 mph 4.0 mph 64% 0.00 in 39 W/m2
16:06 46.7 °F 35.2 °F 29.89 in SSE 5.0 mph 6.0 mph 64% 0.00 in 39 W/m2
16:12 46.4 °F 35.3 °F 29.88 in South 4.0 mph 5.0 mph 65% 0.00 in 30 W/m2
16:18 46.0 °F 35.3 °F 29.89 in South 4.0 mph 7.0 mph 66% 0.00 in 21 W/m2
16:24 45.8 °F 35.5 °F 29.88 in SSW 5.0 mph 5.0 mph 67% 0.00 in 19 W/m2
16:30 45.6 °F 35.3 °F 29.88 in South 4.0 mph 4.0 mph 67% 0.00 in 14 W/m2
16:36 45.5 °F 35.5 °F 29.88 in South 4.0 mph 4.0 mph 68% 0.00 in 11 W/m2
16:42 45.3 °F 35.7 °F 29.88 in SSE 4.0 mph 5.0 mph 69% 0.00 in 5 W/m2
16:48 45.2 °F 35.6 °F 29.88 in South 5.0 mph 7.0 mph 69% 0.00 in 0 W/m2
16:54 45.2 °F 36.0 °F 29.87 in SSE 4.0 mph 6.0 mph 70% 0.00 in 0 W/m2
17:00 45.0 °F 35.8 °F 29.88 in South 4.0 mph 4.0 mph 70% 0.00 in 0 W/m2
17:06 44.9 °F 36.1 °F 29.88 in South 3.0 mph 6.0 mph 71% 0.00 in 0 W/m2
17:12 44.8 °F 36.0 °F 29.87 in South 4.0 mph 5.0 mph 71% 0.00 in 0 W/m2
17:18 44.8 °F 36.3 °F 29.87 in SSE 5.0 mph 5.0 mph 72% 0.00 in 0 W/m2
17:24 44.7 °F 36.2 °F 29.87 in SSE 4.0 mph 4.0 mph 72% 0.00 in 0 W/m2
17:30 44.7 °F 36.2 °F 29.87 in SSE 4.0 mph 4.0 mph 72% 0.00 in 0 W/m2
17:36 44.7 °F 36.6 °F 29.86 in South 4.0 mph 5.0 mph 73% 0.00 in 0 W/m2
17:42 44.7 °F 36.6 °F 29.86 in SSE 4.0 mph 12.0 mph 73% 0.00 in 0 W/m2
17:48 44.7 °F 36.6 °F 29.86 in South 4.0 mph 12.0 mph 73% 0.00 in 0 W/m2
17:56 44.5 °F 36.4 °F 29.86 in South 3.0 mph 6.0 mph 73% 0.00 in 0 W/m2
18:02 44.4 °F 36.6 °F 29.86 in SSE 4.0 mph 4.0 mph 74% 0.00 in 0 W/m2
18:08 44.4 °F 36.6 °F 29.86 in South 4.0 mph 9.0 mph 74% 0.00 in 0 W/m2
18:14 44.3 °F 36.5 °F 29.85 in South 4.0 mph 8.0 mph 74% 0.00 in 0 W/m2
18:20 44.4 °F 36.6 °F 29.85 in SSE 5.0 mph 5.0 mph 74% 0.00 in 0 W/m2
18:26 44.5 °F 36.7 °F 29.85 in South 5.0 mph 8.0 mph 74% 0.00 in 0 W/m2
18:32 44.5 °F 36.7 °F 29.84 in SSW 5.0 mph 5.0 mph 74% 0.00 in 0 W/m2
18:38 44.6 °F 36.5 °F 29.84 in South 6.0 mph 8.0 mph 73% 0.00 in 0 W/m2
18:44 44.6 °F 36.5 °F 29.84 in South 6.0 mph 11.0 mph 73% 0.00 in 0 W/m2
18:50 44.6 °F 36.5 °F 29.83 in South 6.0 mph 6.0 mph 73% 0.00 in 0 W/m2
18:56 44.5 °F 36.4 °F 29.83 in South 5.0 mph 6.0 mph 73% 0.00 in 0 W/m2
19:02 44.5 °F 36.4 °F 29.83 in SW 5.0 mph 5.0 mph 73% 0.00 in 0 W/m2
19:08 44.5 °F 36.4 °F 29.83 in South 5.0 mph 7.0 mph 73% 0.00 in 0 W/m2
19:14 44.4 °F 36.3 °F 29.82 in SSE 5.0 mph 7.0 mph 73% 0.00 in 0 W/m2
19:20 44.5 °F 36.4 °F 29.83 in South 5.0 mph 6.0 mph 73% 0.00 in 0 W/m2
19:26 44.6 °F 36.5 °F 29.82 in SSW 5.0 mph 9.0 mph 73% 0.00 in 0 W/m2
19:32 44.7 °F 36.6 °F 29.82 in SSW 5.0 mph 5.0 mph 73% 0.00 in 0 W/m2
19:38 45.1 °F 37.0 °F 29.82 in South 4.0 mph 5.0 mph 73% 0.00 in 0 W/m2
19:44 45.4 °F 36.9 °F 29.82 in South 5.0 mph 5.0 mph 72% 0.00 in 0 W/m2
19:50 45.6 °F 36.7 °F 29.82 in SSW 5.0 mph 5.0 mph 71% 0.00 in 0 W/m2
19:56 45.6 °F 36.7 °F 29.82 in SSW 4.0 mph 6.0 mph 71% 0.00 in 0 W/m2
20:02 45.7 °F 37.2 °F 29.82 in SSE 4.0 mph 5.0 mph 72% 0.00 in 0 W/m2
20:08 45.8 °F 36.9 °F 29.81 in SW 4.0 mph 5.0 mph 71% 0.00 in 0 W/m2
20:14 45.9 °F 37.0 °F 29.81 in SSW 5.0 mph 10.0 mph 71% 0.00 in 0 W/m2
20:20 45.9 °F 37.4 °F 29.81 in South 5.0 mph 5.0 mph 72% 0.00 in 0 W/m2
20:26 46.0 °F 37.5 °F 29.81 in WSW 4.0 mph 6.0 mph 72% 0.00 in 0 W/m2
20:32 46.2 °F 37.3 °F 29.81 in SW 4.0 mph 8.0 mph 71% 0.00 in 0 W/m2
20:38 46.4 °F 37.5 °F 29.81 in South 4.0 mph 8.0 mph 71% 0.00 in 0 W/m2
20:44 46.5 °F 37.6 °F 29.81 in South 5.0 mph 7.0 mph 71% 0.00 in 0 W/m2
20:50 46.5 °F 37.6 °F 29.81 in SW 6.0 mph 6.0 mph 71% 0.00 in 0 W/m2
20:56 46.5 °F 37.6 °F 29.81 in SW 5.0 mph 6.0 mph 71% 0.00 in 0 W/m2
21:02 46.4 °F 37.5 °F 29.82 in SW 3.0 mph 4.0 mph 71% 0.00 in 0 W/m2
21:08 46.6 °F 37.3 °F 29.82 in WSW 4.0 mph 7.0 mph 70% 0.00 in 0 W/m2
21:14 46.7 °F 37.4 °F 29.82 in SW 4.0 mph 6.0 mph 70% 0.00 in 0 W/m2
21:20 46.6 °F 37.7 °F 29.82 in WSW 2.0 mph 5.0 mph 71% 0.00 in 0 W/m2
21:26 46.2 °F 37.7 °F 29.82 in WNW 3.0 mph 9.0 mph 72% 0.00 in 0 W/m2
21:32 44.0 °F 37.3 °F 29.83 in WNW 5.0 mph 5.0 mph 77% 0.00 in 0 W/m2
21:38 42.2 °F 36.8 °F 29.84 in WNW 5.0 mph 6.0 mph 81% 0.00 in 0 W/m2
21:44 41.5 °F 37.0 °F 29.84 in West 4.0 mph 5.0 mph 84% 0.00 in 0 W/m2
21:50 41.2 °F 37.0 °F 29.84 in WSW 3.0 mph 3.0 mph 85% 0.06 in 0 W/m2
21:56 40.9 °F 37.0 °F 29.84 in West 3.0 mph 6.0 mph 86% 0.07 in 0 W/m2
22:02 40.7 °F 36.8 °F 29.84 in West 5.0 mph 5.0 mph 86% 0.07 in 0 W/m2
22:08 40.7 °F 36.8 °F 29.84 in West 5.0 mph 10.0 mph 86% 0.05 in 0 W/m2
22:14 40.7 °F 36.8 °F 29.84 in West 6.0 mph 7.0 mph 86% 0.05 in 0 W/m2
22:20 40.8 °F 36.9 °F 29.84 in West 5.0 mph 5.0 mph 86% 0.05 in 0 W/m2
22:26 40.9 °F 37.0 °F 29.85 in WNW 5.0 mph 5.0 mph 86% 0.05 in 0 W/m2
22:32 39.8 °F 35.4 °F 29.86 in WNW 6.0 mph 10.0 mph 84% 0.04 in 0 W/m2
22:38 38.8 °F 34.7 °F 29.86 in West 6.0 mph 10.0 mph 85% 0.00 in 0 W/m2
22:44 38.3 °F 34.5 °F 29.87 in WNW 6.0 mph 7.0 mph 86% 0.00 in 0 W/m2
22:50 37.8 °F 34.3 °F 29.87 in NW 6.0 mph 7.0 mph 87% 0.06 in 0 W/m2
22:56 37.5 °F 34.0 °F 29.88 in NW 6.0 mph 7.0 mph 87% 0.06 in 0 W/m2
23:02 37.1 °F 33.9 °F 29.88 in WNW 6.0 mph 6.0 mph 88% 0.05 in 0 W/m2
23:08 36.8 °F 33.6 °F 29.89 in NW 5.0 mph 6.0 mph 88% 0.00 in 0 W/m2
23:14 36.5 °F 33.3 °F 29.89 in WNW 4.0 mph 5.0 mph 88% 0.00 in 0 W/m2
23:20 36.3 °F 33.1 °F 29.90 in NW 4.0 mph 5.0 mph 88% 0.00 in 0 W/m2
23:28 36.1 °F 32.9 °F 29.91 in NW 4.0 mph 7.0 mph 88% 0.00 in 0 W/m2
23:34 35.6 °F 32.4 °F 29.91 in West 5.0 mph 5.0 mph 88% 0.00 in 0 W/m2
23:40 35.4 °F 32.2 °F 29.92 in WNW 5.0 mph 5.0 mph 88% 0.00 in 0 W/m2
23:48 35.0 °F 31.8 °F 29.92 in NNW 6.0 mph 9.0 mph 88% 0.00 in 0 W/m2
23:54 34.7 °F 31.5 °F 29.94 in WNW 5.0 mph 7.0 mph 88% 0.00 in 0 W/m2
Country Meadow, Clay, NY, USA
Compliments of Weather Underground - 2 mb